createdAt,value
2023-04-19T00:00:20.002Z,100628.94
2023-04-19T00:02:49.524Z,100619.44
2023-04-19T00:05:16.730Z,100626.22
2023-04-19T00:07:43.879Z,100627.03
2023-04-19T00:10:11.124Z,100622.72
2023-04-19T00:12:38.273Z,100635.66
2023-04-19T00:15:06.327Z,100621.81
2023-04-19T00:17:34.101Z,100625.25
2023-04-19T00:20:01.268Z,100633.03
2023-04-19T00:22:31.633Z,100627.94
2023-04-19T00:24:58.657Z,100632.41
2023-04-19T00:27:25.764Z,100636.75
2023-04-19T00:29:52.877Z,100635.00
2023-04-19T00:32:19.761Z,100634.88
2023-04-19T00:34:47.317Z,100642.69
2023-04-19T00:37:14.714Z,100634.09
2023-04-19T00:39:41.765Z,100634.09
2023-04-19T00:42:08.779Z,100635.91
2023-04-19T00:44:35.796Z,100638.50
2023-04-19T00:47:03.030Z,100640.19
2023-04-19T00:49:30.562Z,100643.59
2023-04-19T00:51:57.569Z,100646.25
2023-04-19T00:54:24.675Z,100642.81
2023-04-19T00:56:51.670Z,100643.59
2023-04-19T00:59:18.745Z,100645.28
2023-04-19T01:01:45.801Z,100643.50
2023-04-19T01:04:13.050Z,100646.88
2023-04-19T01:06:40.721Z,100643.31
2023-04-19T01:09:09.951Z,100640.81
2023-04-19T01:11:42.560Z,100647.06
2023-04-19T01:14:10.383Z,100646.25
2023-04-19T01:16:39.265Z,100634.25
2023-04-19T01:19:06.612Z,100643.72
2023-04-19T01:21:38.389Z,100638.63
2023-04-19T01:24:05.980Z,100642.94
2023-04-19T01:26:33.139Z,100640.38
2023-04-19T01:29:03.278Z,100642.97
2023-04-19T01:31:30.266Z,100636.09
2023-04-19T01:33:57.395Z,100649.13
2023-04-19T01:36:24.450Z,100643.13
2023-04-19T01:38:51.569Z,100649.13
2023-04-19T01:41:20.521Z,100647.38
2023-04-19T01:43:47.834Z,100646.56
2023-04-19T01:46:15.142Z,100646.63
2023-04-19T01:48:42.329Z,100648.31
2023-04-19T01:51:09.432Z,100650.03
2023-04-19T01:53:36.525Z,100645.59
2023-04-19T01:56:03.784Z,100643.78
2023-04-19T01:58:30.868Z,100641.13
2023-04-19T02:00:58.037Z,100649.59
2023-04-19T02:03:25.225Z,100639.28
2023-04-19T02:05:52.692Z,100643.59
2023-04-19T02:08:22.842Z,100640.94
2023-04-19T02:10:49.839Z,100639.88
2023-04-19T02:13:19.395Z,100642.25
2023-04-19T02:15:46.445Z,100638.38
2023-04-19T02:18:33.454Z,100642.34
2023-04-19T02:21:00.590Z,100639.75
2023-04-19T02:23:27.776Z,100649.03
2023-04-19T02:25:54.923Z,100654.19
2023-04-19T02:28:21.931Z,100649.09
2023-04-19T02:30:49.640Z,100649.19
2023-04-19T02:33:17.679Z,100657.75
2023-04-19T02:35:44.713Z,100655.16
2023-04-19T02:38:11.617Z,100657.91
2023-04-19T02:40:38.581Z,100657.91
2023-04-19T02:43:05.852Z,100663.81
2023-04-19T02:45:32.794Z,100654.31
2023-04-19T02:47:59.846Z,100652.44
2023-04-19T02:50:27.251Z,100653.19
2023-04-19T02:52:54.301Z,100652.19
2023-04-19T02:55:24.420Z,100649.53
2023-04-19T02:58:00.302Z,100653.09
2023-04-19T03:00:26.977Z,100653.94
2023-04-19T03:03:04.806Z,100663.50
2023-04-19T03:05:33.417Z,100658.41
2023-04-19T03:08:00.479Z,100659.25
2023-04-19T03:10:27.696Z,100653.34
2023-04-19T03:12:56.431Z,100663.81
2023-04-19T03:15:23.650Z,100667.44
2023-04-19T03:17:51.098Z,100663.44
2023-04-19T03:20:21.703Z,100667.94
2023-04-19T03:22:49.580Z,100665.50
2023-04-19T03:25:17.576Z,100669.75
2023-04-19T03:27:49.737Z,100672.47
2023-04-19T03:30:21.175Z,100669.22
2023-04-19T03:32:48.269Z,100670.88
2023-04-19T03:35:16.070Z,100674.25
2023-04-19T03:37:43.936Z,100670.88
2023-04-19T03:40:11.318Z,100671.84
2023-04-19T03:42:38.256Z,100669.28
2023-04-19T03:45:12.981Z,100678.78
2023-04-19T03:47:46.078Z,100671.25
2023-04-19T03:50:13.370Z,100675.66
2023-04-19T03:52:43.631Z,100682.81
2023-04-19T03:55:12.603Z,100680.34
2023-04-19T03:57:41.119Z,100682.25
2023-04-19T04:00:22.369Z,100674.75
2023-04-19T04:02:55.697Z,100676.56
2023-04-19T04:05:23.018Z,100680.28
2023-04-19T04:07:50.633Z,100683.94
2023-04-19T04:10:18.839Z,100685.81
2023-04-19T04:12:47.876Z,100686.06
2023-04-19T04:15:21.378Z,100685.41
2023-04-19T04:17:52.500Z,100688.88
2023-04-19T04:20:20.976Z,100683.84
2023-04-19T04:22:49.234Z,100677.06
2023-04-19T04:25:18.071Z,100674.72
2023-04-19T04:27:48.464Z,100681.91
2023-04-19T04:30:19.105Z,100678.72
2023-04-19T04:32:47.649Z,100673.75
2023-04-19T04:35:14.916Z,100684.25
2023-04-19T04:37:49.725Z,100681.75
2023-04-19T04:40:16.776Z,100686.31
2023-04-19T04:42:45.626Z,100684.94
2023-04-19T04:45:13.097Z,100682.50
2023-04-19T04:47:43.286Z,100689.59
2023-04-19T04:50:11.622Z,100682.03
2023-04-19T04:52:39.102Z,100684.81
2023-04-19T04:55:17.539Z,100682.44
2023-04-19T04:57:45.173Z,100686.94
2023-04-19T05:00:18.231Z,100685.38
2023-04-19T05:02:57.359Z,100683.84
2023-04-19T05:05:24.809Z,100683.97
2023-04-19T05:07:52.293Z,100688.44
2023-04-19T05:10:19.897Z,100684.16
2023-04-19T05:12:48.276Z,100692.06
2023-04-19T05:15:15.862Z,100689.53
2023-04-19T05:17:48.773Z,100687.84
2023-04-19T05:20:15.999Z,100694.81
2023-04-19T05:22:43.953Z,100697.44
2023-04-19T05:25:12.950Z,100693.97
2023-04-19T05:27:40.197Z,100700.94
2023-04-19T05:30:08.237Z,100697.47
2023-04-19T05:32:40.087Z,100707.00
2023-04-19T05:35:10.101Z,100705.34
2023-04-19T05:37:38.905Z,100700.19
2023-04-19T05:40:09.724Z,100699.34
2023-04-19T05:42:37.156Z,100699.34
2023-04-19T05:45:06.196Z,100696.75
2023-04-19T05:47:33.986Z,100699.34
2023-04-19T05:50:20.669Z,100705.44
2023-04-19T05:53:11.056Z,100703.69
2023-04-19T05:55:38.234Z,100708.00
2023-04-19T05:58:05.289Z,100701.00
2023-04-19T06:00:32.651Z,100706.22
2023-04-19T06:03:07.886Z,100700.13
2023-04-19T06:05:35.332Z,100704.44
2023-04-19T06:08:03.083Z,100701.84
2023-04-19T06:10:44.392Z,100701.88
2023-04-19T06:13:20.392Z,100708.84
2023-04-19T06:15:47.852Z,100701.88
2023-04-19T06:18:19.571Z,100710.53
2023-04-19T06:20:47.581Z,100709.59
2023-04-19T06:23:15.147Z,100706.06
2023-04-19T06:25:42.724Z,100705.13
2023-04-19T06:28:09.819Z,100705.91
2023-04-19T06:30:36.793Z,100704.06
2023-04-19T06:33:04.050Z,100708.44
2023-04-19T06:35:31.735Z,100705.75
2023-04-19T06:38:01.880Z,100715.25
2023-04-19T06:40:31.999Z,100704.78
2023-04-19T06:42:59.120Z,100702.97
2023-04-19T06:45:26.249Z,100699.38
2023-04-19T06:47:53.371Z,100702.88
2023-04-19T06:50:20.751Z,100703.72
2023-04-19T06:52:47.751Z,100696.72
2023-04-19T06:55:14.762Z,100701.00
2023-04-19T06:57:42.899Z,100705.38
2023-04-19T07:00:10.770Z,100699.34
2023-04-19T07:02:37.781Z,100702.75
2023-04-19T07:05:05.254Z,100705.25
2023-04-19T07:07:33.326Z,100708.72
2023-04-19T07:10:00.403Z,100708.78
2023-04-19T07:12:27.991Z,100703.59
2023-04-19T07:14:57.292Z,100703.59
2023-04-19T07:17:24.433Z,100697.56
2023-04-19T07:19:51.607Z,100704.50
2023-04-19T07:22:18.603Z,100699.16
2023-04-19T07:24:45.669Z,100707.00
2023-04-19T07:27:14.416Z,100700.88
2023-04-19T07:29:41.567Z,100702.50
2023-04-19T07:32:08.750Z,100703.31
2023-04-19T07:34:37.794Z,100697.91
2023-04-19T07:37:04.770Z,100694.22
2023-04-19T07:39:31.820Z,100697.66
2023-04-19T07:41:58.818Z,100704.56
2023-04-19T07:44:25.824Z,100694.91
2023-04-19T07:46:53.166Z,100695.66
2023-04-19T07:49:20.232Z,100698.16
2023-04-19T07:51:47.177Z,100692.91
2023-04-19T07:54:16.468Z,100692.75
2023-04-19T07:56:44.012Z,100696.25
2023-04-19T07:59:10.950Z,100700.41
2023-04-19T08:01:38.115Z,100695.91
2023-04-19T08:04:05.899Z,100692.44
2023-04-19T08:06:33.682Z,100690.56
2023-04-19T08:09:00.785Z,100691.13
2023-04-19T08:11:27.840Z,100689.22
2023-04-19T08:14:06.948Z,100682.94
2023-04-19T08:17:19.595Z,100686.19
2023-04-19T08:19:29.060Z,100684.28
2023-04-19T08:21:56.865Z,100685.13
2023-04-19T08:24:24.148Z,100686.75
2023-04-19T08:26:54.367Z,100679.72
2023-04-19T08:29:22.341Z,100679.75
2023-04-19T08:31:49.712Z,100682.28
2023-04-19T08:34:16.832Z,100682.09
2023-04-19T08:36:51.877Z,100682.06
2023-04-19T08:39:32.918Z,100679.31
2023-04-19T08:42:17.714Z,100671.31
2023-04-19T08:45:12.974Z,100673.63
2023-04-19T08:50:24.180Z,100668.16
2023-04-19T08:53:08.527Z,100667.41
2023-04-19T08:56:03.562Z,100671.84
2023-04-19T09:01:07.192Z,100664.69
2023-04-19T09:03:41.173Z,100668.16
2023-04-19T09:06:14.741Z,100664.50
2023-04-19T09:08:42.105Z,100666.09
2023-04-19T09:11:09.189Z,100660.69
2023-04-19T09:13:38.492Z,100658.81
2023-04-19T09:16:08.010Z,100653.38
2023-04-19T09:18:39.986Z,100657.63
2023-04-19T09:21:09.834Z,100650.50
2023-04-19T09:23:36.836Z,100653.78
2023-04-19T09:28:34.895Z,100641.50
2023-04-19T09:31:33.337Z,100630.13
2023-04-19T09:34:16.172Z,100635.25
2023-04-19T09:36:43.110Z,100635.09
2023-04-19T09:39:10.749Z,100630.66
2023-04-19T09:41:53.682Z,100631.34
2023-04-19T09:44:56.111Z,100640.91
2023-04-19T09:47:27.452Z,100631.50
2023-04-19T09:50:19.305Z,100634.34
2023-04-19T09:52:50.258Z,100635.56
2023-04-19T09:55:26.850Z,100629.31
2023-04-19T09:57:55.303Z,100631.03
2023-04-19T10:00:23.016Z,100630.13
2023-04-19T10:02:55.974Z,100632.91
2023-04-19T10:05:24.755Z,100625.00
2023-04-19T10:07:54.900Z,100630.16
2023-04-19T10:10:40.580Z,100626.34
2023-04-19T10:13:19.778Z,100623.38
2023-04-19T10:15:54.021Z,100619.69
2023-04-19T10:18:22.457Z,100635.53
2023-04-19T10:20:56.668Z,100616.22
2023-04-19T10:23:23.605Z,100618.75
2023-04-19T10:25:55.961Z,100620.41
2023-04-19T10:28:23.146Z,100620.16
2023-04-19T10:31:03.349Z,100616.38
2023-04-19T10:33:37.382Z,100613.00
2023-04-19T10:36:04.771Z,100612.19
2023-04-19T10:38:48.094Z,100610.34
2023-04-19T10:41:19.236Z,100611.25
2023-04-19T10:43:55.621Z,100604.59
2023-04-19T10:46:23.127Z,100606.75
2023-04-19T10:49:00.573Z,100603.56
2023-04-19T10:51:38.914Z,100597.22
2023-04-19T10:54:07.145Z,100602.41
2023-04-19T10:56:36.808Z,100592.75
2023-04-19T10:59:07.984Z,100587.41
2023-04-19T11:01:45.070Z,100585.44
2023-04-19T11:04:16.307Z,100592.19
2023-04-19T11:06:55.428Z,100586.91
2023-04-19T11:09:26.621Z,100582.22
2023-04-19T11:11:54.861Z,100576.03
2023-04-19T11:14:21.892Z,100583.19
2023-04-19T11:16:49.109Z,100576.13
2023-04-19T11:19:17.344Z,100582.16
2023-04-19T11:21:47.630Z,100585.38
2023-04-19T11:24:19.063Z,100581.94
2023-04-19T11:26:46.765Z,100576.56
2023-04-19T11:29:14.036Z,100573.00
2023-04-19T11:31:46.362Z,100571.44
2023-04-19T11:34:13.665Z,100572.31
2023-04-19T11:36:51.622Z,100582.59
2023-04-19T11:39:19.064Z,100579.91
2023-04-19T11:41:47.428Z,100580.66
2023-04-19T11:44:15.958Z,100575.44
2023-04-19T11:46:43.976Z,100569.56
2023-04-19T11:49:10.950Z,100571.59
2023-04-19T11:51:42.456Z,100560.81
2023-04-19T11:54:14.263Z,100567.66
2023-04-19T11:56:57.659Z,100552.47
2023-04-19T11:59:24.816Z,100553.06
2023-04-19T12:01:52.291Z,100566.03
2023-04-19T12:04:20.949Z,100557.19
2023-04-19T12:07:02.266Z,100554.78
2023-04-19T12:09:29.460Z,100554.91
2023-04-19T12:11:58.433Z,100551.19
2023-04-19T12:14:26.842Z,100550.41
2023-04-19T12:17:04.276Z,100549.63
2023-04-19T12:19:35.228Z,100546.19
2023-04-19T12:22:15.666Z,100554.47
2023-04-19T12:24:42.736Z,100557.34
2023-04-19T12:27:10.780Z,100547.50
2023-04-19T12:29:38.457Z,100551.94
2023-04-19T12:32:06.115Z,100546.66
2023-04-19T12:34:33.228Z,100544.34
2023-04-19T12:37:00.866Z,100543.53
2023-04-19T12:39:29.985Z,100530.28
2023-04-19T12:41:58.276Z,100538.16
2023-04-19T12:44:25.494Z,100524.03
2023-04-19T12:46:55.321Z,100521.47
2023-04-19T12:49:22.222Z,100530.34
2023-04-19T12:51:49.276Z,100531.72
2023-04-19T12:54:16.466Z,100523.50
2023-04-19T12:56:43.530Z,100522.22
2023-04-19T12:59:11.577Z,100521.75
2023-04-19T13:01:38.732Z,100521.41
2023-04-19T13:04:11.953Z,100521.34
2023-04-19T13:06:39.919Z,100518.72
2023-04-19T13:09:14.360Z,100524.13
2023-04-19T13:11:42.326Z,100531.59
2023-04-19T13:14:09.303Z,100524.31
2023-04-19T13:16:36.214Z,100521.94
2023-04-19T13:19:03.159Z,100513.06
2023-04-19T13:21:30.667Z,100511.94
2023-04-19T13:24:00.710Z,100515.34
2023-04-19T13:26:27.767Z,100515.41
2023-04-19T13:28:54.885Z,100514.44
2023-04-19T13:31:21.928Z,100516.25
2023-04-19T13:33:49.044Z,100514.63
2023-04-19T13:36:16.107Z,100523.72
2023-04-19T13:38:43.184Z,100523.06
2023-04-19T13:41:10.318Z,100519.81
2023-04-19T13:43:37.403Z,100517.28
2023-04-19T13:46:04.513Z,100519.38
2023-04-19T13:48:31.580Z,100521.63
2023-04-19T13:50:59.013Z,100515.78
2023-04-19T13:53:26.921Z,100519.47
2023-04-19T13:55:53.957Z,100525.84
2023-04-19T13:58:20.863Z,100514.72
2023-04-19T14:00:51.065Z,100518.44
2023-04-19T14:03:18.438Z,100518.78
2023-04-19T14:05:45.583Z,100521.59
2023-04-19T14:08:12.608Z,100518.28
2023-04-19T14:10:40.714Z,100516.69
2023-04-19T14:13:07.894Z,100517.72
2023-04-19T14:15:34.830Z,100520.47
2023-04-19T14:18:02.637Z,100517.13
2023-04-19T14:20:29.657Z,100518.06
2023-04-19T14:22:59.062Z,100522.53
2023-04-19T14:25:26.678Z,100527.84
2023-04-19T14:27:53.802Z,100527.84
2023-04-19T14:30:20.874Z,100522.69
2023-04-19T14:32:48.060Z,100521.03
2023-04-19T14:35:15.122Z,100517.63
2023-04-19T14:37:42.259Z,100515.09
2023-04-19T14:40:10.824Z,100520.34
2023-04-19T14:42:37.990Z,100523.84
2023-04-19T14:45:05.432Z,100509.03
2023-04-19T14:47:33.579Z,100518.63
2023-04-19T14:50:00.636Z,100514.31
2023-04-19T14:52:27.716Z,100514.31
2023-04-19T14:54:54.765Z,100515.22
2023-04-19T14:57:21.697Z,100517.03
2023-04-19T14:59:48.781Z,100518.81
2023-04-19T15:02:16.690Z,100512.72
2023-04-19T15:04:44.389Z,100516.31
2023-04-19T15:07:11.587Z,100514.63
2023-04-19T15:09:38.741Z,100519.09
2023-04-19T15:12:06.086Z,100508.75
2023-04-19T15:14:33.259Z,100512.28
2023-04-19T15:17:00.373Z,100513.19
2023-04-19T15:19:28.342Z,100514.13
2023-04-19T15:21:55.296Z,100511.56
2023-04-19T15:24:22.235Z,100510.69
2023-04-19T15:26:49.110Z,100508.16
2023-04-19T15:29:16.438Z,100510.81
2023-04-19T15:31:43.754Z,100504.78
2023-04-19T15:34:10.832Z,100506.59
2023-04-19T15:36:38.032Z,100507.50
2023-04-19T15:39:05.035Z,100504.09
2023-04-19T15:41:32.019Z,100503.25
2023-04-19T15:43:59.024Z,100504.19
2023-04-19T15:46:26.040Z,100500.75
2023-04-19T15:48:53.227Z,100499.97
2023-04-19T15:51:20.094Z,100511.31
2023-04-19T15:53:47.284Z,100506.16
2023-04-19T15:56:14.396Z,100504.44
2023-04-19T15:58:41.577Z,100512.25
2023-04-19T16:01:14.494Z,100512.31
2023-04-19T16:03:42.443Z,100511.47
2023-04-19T16:06:09.923Z,100506.28
2023-04-19T16:08:37.000Z,100513.28
2023-04-19T16:11:05.645Z,100510.69
2023-04-19T16:13:32.663Z,100515.09
2023-04-19T16:16:01.293Z,100517.69
2023-04-19T16:18:28.806Z,100517.72
2023-04-19T16:20:55.837Z,100517.75
2023-04-19T16:23:24.080Z,100516.94
2023-04-19T16:25:51.059Z,100521.28
2023-04-19T16:28:18.947Z,100518.66
2023-04-19T16:30:47.130Z,100527.38
2023-04-19T16:33:15.406Z,100519.53
2023-04-19T16:35:42.418Z,100523.91
2023-04-19T16:38:09.585Z,100521.28
2023-04-19T16:40:36.627Z,100526.53
2023-04-19T16:43:04.892Z,100525.63
2023-04-19T16:45:32.437Z,100520.44
2023-04-19T16:47:59.815Z,100523.03
2023-04-19T16:50:26.956Z,100522.13
2023-04-19T16:52:54.040Z,100523.00
2023-04-19T16:55:21.758Z,100523.00
2023-04-19T16:57:49.474Z,100525.63
2023-04-19T17:00:16.882Z,100535.16
2023-04-19T17:02:43.910Z,100536.00
2023-04-19T17:05:12.799Z,100532.50
2023-04-19T17:07:39.972Z,100535.09
2023-04-19T17:10:07.462Z,100536.81
2023-04-19T17:12:34.701Z,100538.56
2023-04-19T17:15:01.760Z,100538.50
2023-04-19T17:17:32.528Z,100535.88
2023-04-19T17:19:59.653Z,100543.69
2023-04-19T17:22:26.862Z,100533.31
2023-04-19T17:24:55.959Z,100544.53
2023-04-19T17:27:23.195Z,100534.06
2023-04-19T17:29:50.369Z,100542.72
2023-04-19T17:32:17.329Z,100540.09
2023-04-19T17:34:44.387Z,100537.50
2023-04-19T17:37:11.335Z,100538.31
2023-04-19T17:39:38.350Z,100537.44
2023-04-19T17:42:05.639Z,100538.28
2023-04-19T17:44:32.551Z,100541.72
2023-04-19T17:46:59.713Z,100542.56
2023-04-19T17:49:27.217Z,100542.47
2023-04-19T17:51:55.471Z,100541.53
2023-04-19T17:54:22.648Z,100551.91
2023-04-19T17:56:49.739Z,100547.59
2023-04-19T17:59:16.955Z,100549.25
2023-04-19T18:01:44.267Z,100543.13
2023-04-19T18:04:14.784Z,100540.47
2023-04-19T18:06:41.959Z,100546.47
2023-04-19T18:09:09.097Z,100539.47
2023-04-19T18:11:36.039Z,100544.66
2023-04-19T18:14:03.023Z,100537.75
2023-04-19T18:16:30.152Z,100542.06
2023-04-19T18:18:57.179Z,100538.59
2023-04-19T18:21:24.225Z,100537.69
2023-04-19T18:23:52.483Z,100537.69
2023-04-19T18:26:19.402Z,100540.28
2023-04-19T18:28:46.361Z,100533.34
2023-04-19T18:31:13.386Z,100526.38
2023-04-19T18:33:40.480Z,100535.78
2023-04-19T18:36:07.595Z,100532.31
2023-04-19T18:38:34.576Z,100541.75
2023-04-19T18:41:01.633Z,100533.88
2023-04-19T18:43:30.546Z,100539.88
2023-04-19T18:45:59.254Z,100533.81
2023-04-19T18:48:28.129Z,100535.53
2023-04-19T18:50:57.179Z,100538.94
2023-04-19T18:53:26.228Z,100539.72
2023-04-19T18:55:57.510Z,100533.53
2023-04-19T18:58:26.011Z,100535.22
2023-04-19T19:00:53.131Z,100531.78
2023-04-19T19:03:49.774Z,100532.69
2023-04-19T19:06:08.748Z,100538.75
2023-04-19T19:08:36.550Z,100538.75
2023-04-19T19:13:33.734Z,100529.16
2023-04-19T19:16:00.821Z,100536.00
2023-04-19T19:18:29.575Z,100536.81
2023-04-19T19:21:00.391Z,100529.84
2023-04-19T19:23:35.456Z,100533.22
2023-04-19T19:26:03.930Z,100529.75
2023-04-19T19:28:30.961Z,100530.59
2023-04-19T19:30:57.993Z,100533.09
2023-04-19T19:33:25.063Z,100527.00
2023-04-19T19:35:52.052Z,100527.81
2023-04-19T19:38:19.084Z,100520.03
2023-04-19T19:41:28.034Z,100517.41
2023-04-19T19:43:33.104Z,100525.97
2023-04-19T19:46:00.567Z,100518.13
2023-04-19T19:48:30.110Z,100512.81
2023-04-19T19:53:29.160Z,100523.16
2023-04-19T19:55:56.867Z,100509.34
2023-04-19T19:58:47.555Z,100519.69
2023-04-19T20:01:11.292Z,100512.72
2023-04-19T20:03:38.589Z,100514.47
2023-04-19T20:08:42.509Z,100517.81
2023-04-19T20:11:11.177Z,100515.22
2023-04-19T20:13:38.182Z,100514.34
2023-04-19T20:16:06.515Z,100511.69
2023-04-19T20:18:34.996Z,100509.09
2023-04-19T20:21:01.938Z,100515.13
2023-04-19T20:23:28.922Z,100509.03
2023-04-19T20:25:55.997Z,100512.41
2023-04-19T20:28:23.143Z,100515.78
2023-04-19T20:30:50.346Z,100511.38
2023-04-19T20:33:17.501Z,100513.84
2023-04-19T20:35:44.566Z,100504.28
2023-04-19T20:38:11.761Z,100511.13
2023-04-19T20:40:39.052Z,100506.75
2023-04-19T20:43:06.308Z,100505.00
2023-04-19T20:45:33.513Z,100503.22
2023-04-19T20:48:00.637Z,100509.16
2023-04-19T20:50:27.622Z,100505.63
2023-04-19T20:52:54.624Z,100503.09
2023-04-19T20:55:21.801Z,100500.50
2023-04-19T20:57:48.911Z,100503.94
2023-04-19T21:00:16.882Z,100509.09
2023-04-19T21:02:44.429Z,100512.44
2023-04-19T21:05:11.606Z,100504.63
2023-04-19T21:07:38.791Z,100499.47
2023-04-19T21:10:06.624Z,100507.28
2023-04-19T21:12:34.336Z,100497.75
2023-04-19T21:15:01.328Z,100505.41
2023-04-19T21:17:31.423Z,100502.72
2023-04-19T21:19:58.565Z,100498.38
2023-04-19T21:22:25.635Z,100505.25
2023-04-19T21:24:52.553Z,100509.53
2023-04-19T21:27:19.604Z,100498.28
2023-04-19T21:29:46.582Z,100503.34
2023-04-19T21:32:13.692Z,100508.41
2023-04-19T21:34:40.797Z,100494.34
2023-04-19T21:37:07.952Z,100502.59
2023-04-19T21:39:34.974Z,100498.13
2023-04-19T21:42:02.050Z,100492.84
2023-04-19T21:44:29.091Z,100491.09
2023-04-19T21:46:56.268Z,100504.06
2023-04-19T21:49:23.432Z,100491.16
2023-04-19T21:51:51.219Z,100492.97
2023-04-19T21:54:27.032Z,100492.91
2023-04-19T21:57:00.875Z,100492.91
2023-04-19T21:59:28.498Z,100496.41
2023-04-19T22:01:55.631Z,100504.19
2023-04-19T22:04:22.821Z,100489.50
2023-04-19T22:06:49.859Z,100492.06
2023-04-19T22:09:17.066Z,100488.63
2023-04-19T22:11:44.744Z,100486.94
2023-04-19T22:14:12.843Z,100493.88
2023-04-19T22:16:39.839Z,100492.06
2023-04-19T22:19:07.967Z,100493.81
2023-04-19T22:21:34.960Z,100494.72
2023-04-19T22:24:01.948Z,100492.97
2023-04-19T22:26:29.391Z,100487.72
2023-04-19T22:28:56.316Z,100481.63
2023-04-19T22:31:23.401Z,100485.88
2023-04-19T22:33:50.504Z,100481.53
2023-04-19T22:36:17.534Z,100484.91
2023-04-19T22:38:44.664Z,100484.91
2023-04-19T22:41:11.570Z,100474.63
2023-04-19T22:43:38.679Z,100476.25
2023-04-19T22:46:05.789Z,100474.44
2023-04-19T22:48:33.042Z,100478.59
2023-04-19T22:51:00.616Z,100473.44
2023-04-19T22:53:27.683Z,100470.91
2023-04-19T22:55:54.607Z,100463.91
2023-04-19T22:58:21.996Z,100471.47
2023-04-19T23:00:49.723Z,100464.31
2023-04-19T23:03:16.812Z,100472.66
2023-04-19T23:05:44.516Z,100459.50
2023-04-19T23:08:12.966Z,100461.09
2023-04-19T23:10:42.518Z,100458.38
2023-04-19T23:13:15.619Z,100460.88
2023-04-19T23:15:43.291Z,100458.22
2023-04-19T23:18:11.634Z,100453.81
2023-04-19T23:20:38.729Z,100457.38
2023-04-19T23:23:06.068Z,100459.22
2023-04-19T23:25:33.151Z,100460.16
2023-04-19T23:28:00.317Z,100453.97
2023-04-19T23:30:27.412Z,100451.31
2023-04-19T23:32:54.592Z,100460.50
2023-04-19T23:35:22.027Z,100455.25
2023-04-19T23:37:49.136Z,100453.50
2023-04-19T23:40:16.180Z,100452.63
2023-04-19T23:42:43.110Z,100452.72
2023-04-19T23:45:11.488Z,100456.09
2023-04-19T23:47:38.585Z,100444.94
2023-04-19T23:50:06.198Z,100444.94
2023-04-19T23:52:33.080Z,100439.78
2023-04-19T23:55:00.036Z,100441.44
2023-04-19T23:57:27.044Z,100440.59
2023-04-19T23:59:54.109Z,100441.31
